Time;durP1;ratioP1;P1;durP2;ratioP2;P2;SDS_P1;SDS_P2;PMS_P1;PMS_P2;Temp;Humidity;BMP_temperature;BMP_pressure;BME280_temperature;BME280_humidity;BME280_pressure;Samples;Min_cycle;Max_cycle;Signal;HPM_P1;HPM_P2
2024/01/20 00:00:02;;;;;;;6.13;0.80;;;;;;;0.83;100.00;100282.47;5056604;28;20036;-72
2024/01/20 00:02:27;;;;;;;6.95;0.88;;;;;;;0.84;100.00;100283.31;5073329;28;20048;-73
2024/01/20 00:04:52;;;;;;;5.95;1.10;;;;;;;0.69;100.00;100251.19;5055935;28;20032;-72
2024/01/20 00:07:19;;;;;;;7.15;1.02;;;;;;;0.65;100.00;100247.16;5055393;28;20043;-73
2024/01/20 00:09:44;;;;;;;5.50;0.82;;;;;;;0.82;100.00;100269.34;5072498;28;20111;-72
2024/01/20 00:12:10;;;;;;;4.47;0.80;;;;;;;0.83;100.00;100278.97;5071892;28;20286;-72
2024/01/20 00:14:35;;;;;;;9.70;1.30;;;;;;;0.82;100.00;100280.78;5089605;28;20111;-73
2024/01/20 00:17:02;;;;;;;5.18;1.10;;;;;;;0.81;100.00;100284.41;5074340;28;20391;-73
2024/01/20 00:19:27;;;;;;;4.65;1.13;;;;;;;0.79;100.00;100283.72;5071841;28;20698;-73
2024/01/20 00:21:52;;;;;;;6.70;1.20;;;;;;;0.77;100.00;100298.13;5055556;28;20128;-73
2024/01/20 00:24:18;;;;;;;9.00;1.20;;;;;;;0.72;100.00;100293.25;5088932;28;20475;-72
2024/01/20 00:26:43;;;;;;;9.70;1.30;;;;;;;0.70;100.00;100287.28;5073690;28;20051;-72
2024/01/20 00:29:09;;;;;;;7.03;1.10;;;;;;;0.72;100.00;100289.78;5071546;28;20052;-72
2024/01/20 00:31:34;;;;;;;6.03;1.02;;;;;;;0.72;100.00;100289.78;5072031;28;20451;-72
2024/01/20 00:33:59;;;;;;;3.40;0.90;;;;;;;0.69;100.00;100278.47;5071809;28;20032;-72
2024/01/20 00:36:25;;;;;;;7.22;1.17;;;;;;;0.73;100.00;100271.09;5073213;28;20055;-72
2024/01/20 00:38:50;;;;;;;3.20;0.88;;;;;;;0.58;100.00;100233.69;5054684;28;20068;-72
2024/01/20 00:41:15;;;;;;;4.53;1.20;;;;;;;0.68;100.00;100260.94;5072014;28;20058;-72
2024/01/20 00:43:41;;;;;;;5.47;0.90;;;;;;;0.59;100.00;100253.88;5072731;28;20029;-71
2024/01/20 00:46:06;;;;;;;8.80;1.20;;;;;;;0.64;100.00;100266.69;5071752;28;20490;-73
2024/01/20 00:48:32;;;;;;;10.80;1.20;;;;;;;0.65;100.00;100276.28;5071224;28;20028;-73
2024/01/20 00:50:57;;;;;;;6.13;1.20;;;;;;;0.65;100.00;100284.22;5072634;28;20040;-72
2024/01/20 00:53:22;;;;;;;3.75;1.00;;;;;;;0.61;100.00;100262.53;5071696;28;20025;-72
2024/01/20 00:55:48;;;;;;;8.80;1.58;;;;;;;0.49;100.00;100252.28;5086822;28;20035;-73
2024/01/20 00:58:13;;;;;;;6.45;1.30;;;;;;;0.50;100.00;100262.72;5070110;28;20131;-73
2024/01/20 01:00:38;;;;;;;3.35;1.20;;;;;;;0.54;100.00;100285.28;5054131;28;20060;-73
2024/01/20 01:03:04;;;;;;;8.60;2.15;;;;;;;0.56;100.00;100287.75;5071332;28;20391;-72
2024/01/20 01:05:29;;;;;;;5.72;1.70;;;;;;;0.54;100.00;100293.22;5070716;28;20035;-73
2024/01/20 01:07:56;;;;;;;9.35;2.17;;;;;;;0.51;100.00;100290.84;5053998;28;20081;-72
2024/01/20 01:10:21;;;;;;;4.55;1.80;;;;;;;0.26;100.00;100247.38;5072833;28;20029;-73
2024/01/20 01:12:47;;;;;;;8.30;2.20;;;;;;;0.44;100.00;100281.84;5075378;28;20422;-73
2024/01/20 01:15:12;;;;;;;7.03;1.58;;;;;;;0.39;100.00;100287.56;5089669;28;20459;-72
2024/01/20 01:17:38;;;;;;;5.43;1.92;;;;;;;0.35;100.00;100288.84;5072837;28;20035;-73
2024/01/20 01:20:04;;;;;;;6.15;1.90;;;;;;;0.29;100.00;100284.13;5072919;28;20036;-73
2024/01/20 01:22:29;;;;;;;7.38;1.98;;;;;;;0.29;100.00;100281.47;5072623;28;20040;-72
2024/01/20 01:24:55;;;;;;;6.43;1.75;;;;;;;0.38;100.00;100295.66;5087715;28;20081;-72
2024/01/20 01:27:20;;;;;;;6.63;1.80;;;;;;;0.41;100.00;100296.19;5070983;28;20066;-72
2024/01/20 01:29:46;;;;;;;7.18;2.08;;;;;;;0.31;100.00;100281.34;5071249;28;20064;-72
2024/01/20 01:32:11;;;;;;;6.35;1.75;;;;;;;0.40;100.00;100302.47;5054168;28;20111;-72
2024/01/20 01:34:37;;;;;;;6.65;1.45;;;;;;;0.41;100.00;100288.25;5072346;28;20044;-72
2024/01/20 01:37:03;;;;;;;6.25;1.42;;;;;;;0.34;100.00;100284.53;5070828;28;20145;-72
2024/01/20 01:39:28;;;;;;;4.93;1.63;;;;;;;0.37;100.00;100300.13;5053873;28;20032;-72
2024/01/20 01:41:54;;;;;;;5.75;1.88;;;;;;;0.39;100.00;100308.72;5087913;28;20060;-72
2024/01/20 01:44:19;;;;;;;5.18;1.77;;;;;;;0.37;100.00;100307.22;5071201;28;20059;-72
2024/01/20 01:46:45;;;;;;;7.15;1.90;;;;;;;0.23;100.00;100285.56;5087517;28;20033;-72
2024/01/20 01:49:11;;;;;;;3.03;1.55;;;;;;;0.25;100.00;100293.34;5070513;28;20028;-72
2024/01/20 01:51:36;;;;;;;6.22;2.22;;;;;;;0.36;100.00;100314.31;5070608;28;20518;-72
2024/01/20 01:54:03;;;;;;;7.35;2.10;;;;;;;0.36;100.00;100321.41;5070590;28;20032;-73
2024/01/20 01:56:32;;;;;;;8.27;2.60;;;;;;;0.33;100.00;100311.97;5072097;28;20769;-72
2024/01/20 01:58:58;;;;;;;7.63;2.40;;;;;;;0.33;100.00;100311.13;5071476;28;20059;-72
2024/01/20 02:01:24;;;;;;;4.20;1.80;;;;;;;0.35;100.00;100319.75;5070485;28;20084;-73
2024/01/20 02:03:49;;;;;;;7.63;2.22;;;;;;;0.37;100.00;100316.00;5071446;28;20120;-72
2024/01/20 02:06:16;;;;;;;5.70;1.85;;;;;;;0.32;100.00;100320.06;5052942;28;20039;-72
2024/01/20 02:08:42;;;;;;;5.22;1.80;;;;;;;0.35;100.00;100319.75;5086333;28;20036;-72
2024/01/20 02:11:07;;;;;;;3.17;1.33;;;;;;;0.20;100.00;100291.13;5071164;28;20028;-73
2024/01/20 02:13:34;;;;;;;2.63;1.65;;;;;;;0.23;100.00;100295.28;5070057;28;20032;-72
2024/01/20 02:16:03;;;;;;;3.75;1.52;;;;;;;0.19;100.00;100284.16;5071256;28;20064;-72
2024/01/20 02:18:29;;;;;;;3.85;2.00;;;;;;;0.41;100.00;100324.47;5087094;28;20036;-72
2024/01/20 02:20:54;;;;;;;5.13;1.85;;;;;;;0.23;100.00;100295.28;5070500;28;20059;-73
2024/01/20 02:23:20;;;;;;;6.22;2.13;;;;;;;0.44;100.00;100318.91;5072196;28;20425;-72
2024/01/20 02:25:46;;;;;;;4.10;1.63;;;;;;;0.36;100.00;100319.59;5073201;28;20061;-72
2024/01/20 02:28:12;;;;;;;41.63;3.17;;;;;;;0.24;100.00;100318.13;5088096;28;20031;-72
2024/01/20 02:30:41;;;;;;;9.23;2.50;;;;;;;0.28;100.00;100334.56;5071037;28;20482;-72
2024/01/20 02:33:06;;;;;;;6.93;2.63;;;;;;;0.20;100.00;100330.81;5072228;28;20036;-72
2024/01/20 02:35:31;;;;;;;11.60;3.63;;;;;;;0.26;100.00;100345.28;5072001;28;20045;-72
2024/01/20 02:37:57;;;;;;;6.38;4.03;;;;;;;0.29;100.00;100344.97;5074752;28;20028;-72
2024/01/20 02:40:22;;;;;;;84.70;5.60;;;;;;;0.26;100.00;100353.22;5074613;28;20032;-72
2024/01/20 02:42:47;;;;;;;6.60;3.05;;;;;;;0.26;100.00;100353.22;5074851;28;20031;-72
2024/01/20 02:45:13;;;;;;;23.35;3.75;;;;;;;0.24;100.00;100365.75;5075519;28;20036;-72
2024/01/20 02:47:38;;;;;;;4.45;2.67;;;;;;;0.25;100.00;100367.41;5074467;28;20040;-72
2024/01/20 02:50:05;;;;;;;3.95;2.00;;;;;;;0.25;100.00;100372.72;5057534;28;20115;-72
2024/01/20 02:52:31;;;;;;;2.70;1.48;;;;;;;0.04;100.00;100337.69;5075052;28;20111;-72
2024/01/20 02:54:56;;;;;;;2.28;1.13;;;;;;;0.23;100.00;100369.38;5073388;28;20083;-72
2024/01/20 02:57:21;;;;;;;2.63;1.10;;;;;;;0.26;100.00;100371.72;5090404;28;20056;-72
2024/01/20 02:59:47;;;;;;;2.20;0.85;;;;;;;0.26;100.00;100379.66;5073730;28;20066;-72
2024/01/20 03:02:12;;;;;;;2.35;1.25;;;;;;;0.21;100.00;100371.34;5088626;28;20028;-72
2024/01/20 03:04:38;;;;;;;3.50;1.35;;;;;;;0.20;100.00;100380.25;5074065;28;20021;-72
2024/01/20 03:07:03;;;;;;;2.25;1.20;;;;;;;0.20;100.00;100386.38;5090107;28;20490;-72
2024/01/20 03:09:28;;;;;;;2.85;0.90;;;;;;;0.07;100.00;100369.97;5056872;28;20039;-72
2024/01/20 03:11:54;;;;;;;2.58;0.50;;;;;;;0.07;100.00;100385.84;5073922;28;20029;-72
2024/01/20 03:14:20;;;;;;;1.83;0.40;;;;;;;-0.07;100.00;100378.34;5074878;28;20035;-72
2024/01/20 03:16:46;;;;;;;3.10;0.47;;;;;;;0.08;100.00;100398.09;5072691;28;20037;-71
2024/01/20 03:19:11;;;;;;;3.97;0.60;;;;;;;0.03;100.00;100402.97;5055616;28;20026;-72
2024/01/20 03:21:37;;;;;;;2.00;0.50;;;;;;;0.02;100.00;100411.03;5072916;28;20506;-73
2024/01/20 03:24:02;;;;;;;3.15;0.60;;;;;;;-0.02;100.00;100424.56;5073976;28;20132;-72
2024/01/20 03:26:28;;;;;;;2.08;0.50;;;;;;;-0.04;100.00;100421.19;5090372;28;20033;-72
2024/01/20 03:28:53;;;;;;;4.30;0.80;;;;;;;-0.04;100.00;100418.56;5073314;28;20033;-71
2024/01/20 03:31:19;;;;;;;4.43;0.85;;;;;;;-0.09;100.00;100431.38;5073405;28;20058;-73
2024/01/20 03:33:44;;;;;;;6.68;0.82;;;;;;;-0.20;100.00;100436.78;5073821;28;20031;-72
2024/01/20 03:36:11;;;;;;;7.47;0.80;;;;;;;-0.19;100.00;100457.00;5073534;28;20055;-71
2024/01/20 03:38:38;;;;;;;13.45;1.25;;;;;;;-0.24;100.00;100473.25;5075483;28;20064;-72
2024/01/20 03:41:03;;;;;;;5.07;0.75;;;;;;;-0.39;100.00;100426.22;5074940;28;20077;-72
2024/01/20 03:43:29;;;;;;;8.75;0.90;;;;;;;-0.26;100.00;100466.44;5090075;28;20032;-72
2024/01/20 03:45:55;;;;;;;5.82;0.80;;;;;;;-0.32;100.00;100470.47;5074706;28;20029;-71
2024/01/20 03:48:41;;;;;;;9.95;0.90;;;;;;;-0.28;100.00;100471.84;5074432;28;20085;-72
2024/01/20 03:51:09;;;;;;;6.70;0.88;;;;;;;-0.27;100.00;100489.38;5074187;28;20032;-72
2024/01/20 03:53:34;;;;;;;7.38;0.95;;;;;;;-0.27;100.00;100494.69;5074881;28;20518;-71
2024/01/20 03:56:03;;;;;;;6.22;0.98;;;;;;;-0.27;100.00;100499.97;5073201;28;20063;-72
2024/01/20 03:58:28;;;;;;;6.78;0.60;;;;;;;-0.13;100.00;100519.91;5073696;28;20029;-72
2024/01/20 04:00:55;;;;;;;2.40;0.70;;;;;;;-0.08;100.00;100520.31;5090037;28;20139;-71
2024/01/20 04:03:20;;;;;;;5.70;0.60;;;;;;;-0.23;100.00;100521.72;5073272;28;20112;-72
2024/01/20 04:05:47;;;;;;;4.18;0.52;;;;;;;-0.36;100.00;100542.28;5074538;28;20120;-72
2024/01/20 04:08:14;;;;;;;5.28;0.80;;;;;;;-0.39;100.00;100553.09;5072799;28;20055;-72
2024/01/20 04:10:41;;;;;;;6.40;0.75;;;;;;;-0.51;100.00;100536.50;5057069;28;20033;-72
2024/01/20 04:13:06;;;;;;;4.50;0.60;;;;;;;-0.43;100.00;100547.25;5073058;28;20032;-72
2024/01/20 04:15:31;;;;;;;3.90;0.73;;;;;;;-0.47;100.00;100567.81;5073757;28;20111;-72
2024/01/20 04:17:57;;;;;;;3.15;0.63;;;;;;;-0.53;100.00;100567.50;5073847;28;20090;-72
2024/01/20 04:20:22;;;;;;;5.38;0.80;;;;;;;-0.52;100.00;100592.97;5072447;28;20025;-72
2024/01/20 04:22:47;;;;;;;6.05;0.70;;;;;;;-0.52;100.00;100595.63;5072546;28;20028;-72
2024/01/20 04:25:13;;;;;;;5.90;0.75;;;;;;;-0.62;100.00;100592.94;5073985;28;20116;-72
2024/01/20 04:27:40;;;;;;;2.97;0.52;;;;;;;-0.49;100.00;100614.69;5089851;28;20471;-72
2024/01/20 04:30:08;;;;;;;5.68;0.80;;;;;;;-0.53;100.00;100610.66;5072474;28;20052;-72
2024/01/20 04:32:34;;;;;;;2.92;0.60;;;;;;;-0.49;100.00;100624.44;5074717;28;20111;-71
2024/01/20 04:34:59;;;;;;;4.88;0.85;;;;;;;-0.47;100.00;100628.59;5073827;28;20106;-72
2024/01/20 04:37:25;;;;;;;5.88;0.90;;;;;;;-0.55;100.00;100644.28;5073284;28;20715;-72
2024/01/20 04:39:50;;;;;;;6.38;0.80;;;;;;;-0.52;100.00;100651.13;5072217;28;20127;-72
2024/01/20 04:42:16;;;;;;;6.70;1.08;;;;;;;-0.43;100.00;100665.34;5055577;28;20066;-72
2024/01/20 04:44:41;;;;;;;7.28;0.98;;;;;;;-0.50;100.00;100672.97;5071845;28;20057;-72
2024/01/20 04:47:08;;;;;;;4.10;0.82;;;;;;;-0.49;100.00;100672.84;5074192;28;20032;-72
2024/01/20 04:49:34;;;;;;;4.15;0.85;;;;;;;-0.62;100.00;100672.22;5072640;28;20035;-72
2024/01/20 04:52:01;;;;;;;5.50;0.95;;;;;;;-0.56;100.00;100687.56;5073002;28;20402;-72
2024/01/20 04:54:28;;;;;;;3.63;0.63;;;;;;;-0.52;100.00;100694.25;5055508;28;20040;-72
2024/01/20 04:56:53;;;;;;;5.45;1.00;;;;;;;-0.55;100.00;100705.06;5071985;28;20036;-72
2024/01/20 04:59:19;;;;;;;7.47;0.90;;;;;;;-0.57;100.00;100716.75;5071128;28;20078;-72
2024/01/20 05:01:45;;;;;;;8.32;1.10;;;;;;;-0.60;100.00;100720.47;5071462;28;20371;-72
2024/01/20 05:04:11;;;;;;;5.85;1.38;;;;;;;-0.63;100.00;100726.03;5072128;28;20050;-72
2024/01/20 05:06:36;;;;;;;7.40;0.90;;;;;;;-0.92;100.00;100688.84;5072790;28;20035;-72
2024/01/20 05:09:02;;;;;;;7.25;0.77;;;;;;;-0.71;100.00;100731.94;5078845;28;20032;-72
2024/01/20 05:11:28;;;;;;;8.98;1.55;;;;;;;-0.69;100.00;100749.50;5088679;28;20064;-72
2024/01/20 05:13:53;;;;;;;6.88;0.82;;;;;;;-0.90;100.00;100723.03;5073234;28;20123;-71
2024/01/20 05:16:19;;;;;;;7.30;0.90;;;;;;;-0.79;100.00;100760.00;5087396;28;20025;-72
2024/01/20 05:18:44;;;;;;;5.70;1.08;;;;;;;-0.82;100.00;100770.81;5072494;28;20031;-71
2024/01/20 05:21:14;;;;;;;7.60;1.10;;;;;;;-0.91;100.00;100777.69;5087825;28;20024;-72
2024/01/20 05:23:39;;;;;;;12.75;1.60;;;;;;;-0.95;100.00;100779.72;5071690;28;20028;-71
2024/01/20 05:26:04;;;;;;;3.67;0.90;;;;;;;-1.00;100.00;100786.34;5072914;28;20039;-71
2024/01/20 05:28:30;;;;;;;13.18;1.92;;;;;;;-1.07;100.00;100775.44;5071081;28;20028;-71
2024/01/20 05:30:55;;;;;;;9.02;1.45;;;;;;;-1.17;100.00;100774.50;5072550;28;20028;-72
2024/01/20 05:33:21;;;;;;;8.20;1.90;;;;;;;-1.24;100.00;100778.63;5072157;28;20036;-72
2024/01/20 05:35:46;;;;;;;5.40;1.05;;;;;;;-1.32;100.00;100786.31;5071025;28;20056;-70
2024/01/20 05:38:11;;;;;;;8.73;1.27;;;;;;;-1.42;100.00;100787.06;5070657;28;20043;-71
2024/01/20 05:40:37;;;;;;;11.00;1.23;;;;;;;-1.50;100.00;100797.38;5054564;28;20082;-71
2024/01/20 05:43:04;;;;;;;5.35;0.90;;;;;;;-1.55;100.00;100789.00;5070344;28;20086;-72
2024/01/20 05:45:30;;;;;;;9.07;1.55;;;;;;;-1.57;100.00;100801.44;5068908;28;20078;-72
2024/01/20 05:47:55;;;;;;;5.65;1.08;;;;;;;-1.67;100.00;100813.69;5070494;28;20032;-71
2024/01/20 05:50:20;;;;;;;6.55;1.08;;;;;;;-1.73;100.00;100820.28;5073690;28;20040;-71
2024/01/20 05:52:46;;;;;;;7.72;1.55;;;;;;;-1.78;100.00;100822.44;5070540;28;20047;-72
2024/01/20 05:55:11;;;;;;;7.50;1.08;;;;;;;-1.78;100.00;100834.78;5070374;28;20035;-71
2024/01/20 05:57:37;;;;;;;9.38;1.20;;;;;;;-1.85;100.00;100833.56;5071989;28;20043;-71
2024/01/20 06:00:03;;;;;;;7.88;1.38;;;;;;;-1.90;100.00;100840.03;5070596;28;20520;-72
2024/01/20 06:02:28;;;;;;;4.45;1.13;;;;;;;-1.90;100.00;100857.66;5070299;28;20032;-72
2024/01/20 06:04:54;;;;;;;5.93;0.95;;;;;;;-1.97;100.00;100862.56;5054457;28;20044;-71
2024/01/20 06:07:19;;;;;;;4.53;1.10;;;;;;;-1.97;100.00;100881.03;5073712;28;20118;-71
2024/01/20 06:09:45;;;;;;;6.80;0.98;;;;;;;-1.91;100.00;100882.38;5055545;28;20032;-71
2024/01/20 06:12:12;;;;;;;6.10;1.05;;;;;;;-1.99;100.00;100892.63;5058042;28;20032;-71
2024/01/20 06:14:37;;;;;;;7.75;1.40;;;;;;;-1.97;100.00;100906.56;5074861;28;20025;-72
2024/01/20 06:17:03;;;;;;;11.68;1.35;;;;;;;-2.07;100.00;100919.59;5075837;28;20082;-72
2024/01/20 06:19:29;;;;;;;5.03;1.27;;;;;;;-2.11;100.00;100923.41;5091895;28;20041;-72
2024/01/20 06:21:55;;;;;;;8.45;1.30;;;;;;;-2.17;100.00;100931.78;5075421;28;20405;-72
2024/01/20 06:24:20;;;;;;;9.80;1.50;;;;;;;-2.15;100.00;100948.34;5074813;28;20032;-71
2024/01/20 06:26:46;;;;;;;8.93;1.85;;;;;;;-2.10;100.00;100953.25;5076529;28;20039;-71
2024/01/20 06:29:11;;;;;;;7.88;1.48;;;;;;;-2.07;100.00;100959.16;5091430;28;20055;-71
2024/01/20 06:31:37;;;;;;;11.73;1.85;;;;;;;-2.32;100.00;100925.00;5082178;28;20028;-71
2024/01/20 06:34:03;;;;;;;7.03;1.70;;;;;;;-2.21;100.00;100959.34;5091971;28;20036;-71
2024/01/20 06:36:28;;;;;;;13.55;1.95;;;;;;;-2.50;100.00;100919.28;5075629;28;20047;-70
2024/01/20 06:38:54;;;;;;;7.22;1.65;;;;;;;-2.46;100.00;100941.81;5075527;28;20028;-71
2024/01/20 06:41:19;;;;;;;11.10;1.85;;;;;;;-2.29;100.00;100978.31;5074317;28;20024;-71
2024/01/20 06:43:44;;;;;;;6.65;2.13;;;;;;;-2.21;100.00;100985.69;5075188;28;20028;-71
2024/01/20 06:46:10;;;;;;;9.13;2.22;;;;;;;-2.29;100.00;100974.84;5074686;28;20032;-72
2024/01/20 06:48:35;;;;;;;8.40;2.45;;;;;;;-2.41;100.00;100966.91;5074440;28;20024;-71
2024/01/20 06:51:01;;;;;;;11.23;2.20;;;;;;;-2.32;100.00;100991.72;5057775;28;20164;-71
2024/01/20 06:53:27;;;;;;;9.40;2.10;;;;;;;-2.50;100.00;100988.63;5073655;28;20403;-70
2024/01/20 06:55:53;;;;;;;7.80;2.10;;;;;;;-2.62;100.00;100998.28;5073899;28;20063;-71
2024/01/20 06:58:19;;;;;;;8.00;1.67;;;;;;;-2.62;100.00;101014.09;5056524;28;20028;-71
2024/01/20 07:00:44;;;;;;;7.70;1.67;;;;;;;-2.64;100.00;101017.78;5073187;28;20063;-71
2024/01/20 07:03:12;;;;;;;9.50;2.92;;;;;;;-2.63;100.00;101024.72;5056273;28;20458;-72
2024/01/20 07:05:37;;;;;;;9.32;3.47;;;;;;;-2.73;100.00;101003.44;5073286;28;20111;-72
2024/01/20 07:08:04;;;;;;;10.15;3.80;;;;;;;-2.54;100.00;101044.31;5074148;28;20120;-72
2024/01/20 07:10:29;;;;;;;10.85;4.20;;;;;;;-2.78;100.00;101012.59;5074791;28;20032;-72
2024/01/20 07:12:55;;;;;;;9.35;4.80;;;;;;;-2.61;100.00;101065.81;5073279;28;20039;-72
2024/01/20 07:15:21;;;;;;;9.80;4.50;;;;;;;-2.65;100.00;101066.09;5060512;28;20081;-72
2024/01/20 07:17:46;;;;;;;11.07;4.57;;;;;;;-2.74;100.00;101074.69;5074099;28;20032;-72
2024/01/20 07:20:12;;;;;;;10.82;4.57;;;;;;;-2.73;100.00;101087.72;5073069;28;20491;-71
2024/01/20 07:22:57;;;;;;;9.68;4.82;;;;;;;-2.78;100.00;101104.78;5074027;28;20029;-71
2024/01/20 07:25:22;;;;;;;;;;;;;;;-2.98;100.00;101114.91;5075251;28;20032;-71
2024/01/20 07:27:47;;;;;;;10.27;4.97;;;;;;;-3.09;100.00;101120.88;5057141;28;20018;-71
2024/01/20 07:30:13;;;;;;;13.07;4.68;;;;;;;-3.25;100.00;101125.50;5073228;28;20039;-71
2024/01/20 07:32:41;;;;;;;9.15;4.47;;;;;;;-3.33;100.00;101115.47;5074249;28;20383;-70
2024/01/20 07:35:08;;;;;;;10.75;4.53;;;;;;;-3.37;100.00;101140.31;5075064;28;20049;-71
2024/01/20 07:37:36;;;;;;;9.32;4.22;;;;;;;-3.40;100.00;101144.94;5073805;28;20093;-70
2024/01/20 07:40:04;;;;;;;13.23;4.75;;;;;;;-3.49;100.00;101138.47;5057282;28;20399;-72
2024/01/20 07:42:32;;;;;;;10.52;4.43;;;;;;;-3.46;100.00;101156.69;5073756;28;20028;-71
2024/01/20 07:44:58;;;;;;;14.80;4.57;;;;;;;-3.49;100.00;101172.69;5073707;28;20491;-71
2024/01/20 07:47:24;;;;;;;8.98;4.13;;;;;;;-3.63;100.00;101176.22;5071704;28;20075;-71
2024/01/20 07:49:50;;;;;;;9.73;4.45;;;;;;;-3.66;100.00;101192.19;5054844;28;20025;-71
2024/01/20 07:52:16;;;;;;;12.25;4.28;;;;;;;-3.73;100.00;101190.06;5054541;28;20127;-70
2024/01/20 07:54:41;;;;;;;14.23;6.13;;;;;;;-3.89;100.00;101203.31;5054672;28;20039;-71
2024/01/20 07:57:06;;;;;;;11.57;5.63;;;;;;;-4.19;100.00;101198.19;5072360;28;20032;-70
2024/01/20 07:59:32;;;;;;;10.93;3.83;;;;;;;-4.27;100.00;101214.44;5055453;28;20123;-70
2024/01/20 08:01:57;;;;;;;6.90;2.90;;;;;;;-4.32;100.00;101219.94;5056228;28;20418;-71
2024/01/20 08:04:22;;;;;;;8.40;3.28;;;;;;;-4.42;100.00;101229.31;5072026;28;20021;-71
2024/01/20 08:06:48;;;;;;;6.93;3.10;;;;;;;-4.47;100.00;101234.00;5073192;28;20044;-71
2024/01/20 08:09:14;;;;;;;6.85;3.10;;;;;;;-4.63;100.00;101236.72;5071946;28;20047;-71
2024/01/20 08:11:40;;;;;;;10.25;3.45;;;;;;;-4.76;100.00;101241.00;5073320;28;20024;-71
2024/01/20 08:14:05;;;;;;;9.90;3.40;;;;;;;-4.95;100.00;101243.84;5073621;28;20063;-71
2024/01/20 08:16:31;;;;;;;14.35;3.97;;;;;;;-5.02;100.00;101256.47;5055556;28;20041;-71
2024/01/20 08:18:56;;;;;;;10.57;3.65;;;;;;;-5.10;100.00;101269.19;5071871;28;20100;-70
2024/01/20 08:21:22;;;;;;;8.73;3.30;;;;;;;-5.29;100.00;101266.75;5071528;28;20054;-70
2024/01/20 08:23:48;;;;;;;10.88;3.40;;;;;;;-5.36;100.00;101273.28;5073364;28;20059;-70
2024/01/20 08:26:13;;;;;;;7.90;3.13;;;;;;;-5.43;100.00;101277.13;5071644;28;20029;-70
2024/01/20 08:28:39;;;;;;;8.55;3.40;;;;;;;-5.49;100.00;101285.38;5073611;28;20356;-70
2024/01/20 08:31:04;;;;;;;12.73;3.58;;;;;;;-5.68;100.00;101286.34;5055649;28;20059;-70
2024/01/20 08:33:29;;;;;;;9.35;2.50;;;;;;;-6.00;100.00;101284.66;5072993;28;20587;-71
2024/01/20 08:35:55;;;;;;;4.93;2.67;;;;;;;-6.14;100.00;101295.84;5071748;28;20515;-70
2024/01/20 08:38:20;;;;;;;8.05;3.10;;;;;;;-6.28;100.00;101299.19;5071978;28;20427;-70
2024/01/20 08:40:46;;;;;;;7.22;2.80;;;;;;;-6.25;100.00;101309.50;5055488;28;20032;-70
2024/01/20 08:43:11;;;;;;;7.90;3.30;;;;;;;-6.33;100.00;101330.00;5071546;28;20060;-70
2024/01/20 08:45:36;;;;;;;6.18;3.83;;;;;;;-6.52;100.00;101342.31;5054788;28;20043;-70
2024/01/20 08:48:02;;;;;;;5.53;2.90;;;;;;;-6.60;100.00;101341.84;5073089;28;20036;-71
2024/01/20 08:50:27;;;;;;;9.65;3.60;;;;;;;-6.71;100.00;101330.16;5071328;28;20017;-71
2024/01/20 08:52:53;;;;;;;7.22;3.13;;;;;;;-6.78;100.00;101331.38;5055521;28;20032;-70
2024/01/20 08:55:18;;;;;;;5.88;2.90;;;;;;;-6.89;100.00;101346.72;5072131;28;20028;-70
2024/01/20 08:57:44;;;;;;;7.40;3.22;;;;;;;-6.88;100.00;101341.44;5071682;28;20046;-70
2024/01/20 09:00:12;;;;;;;8.02;3.28;;;;;;;-6.88;100.00;101348.44;5072372;28;20032;-70
2024/01/20 09:02:38;;;;;;;8.25;3.78;;;;;;;-6.87;100.00;101358.81;5073400;28;20036;-70
2024/01/20 09:05:05;;;;;;;8.98;3.65;;;;;;;-6.80;100.00;101366.38;5072472;28;20494;-70
2024/01/20 09:07:30;;;;;;;6.70;3.50;;;;;;;-6.95;100.00;101360.13;5070693;28;20110;-71
2024/01/20 09:09:56;;;;;;;17.27;3.90;;;;;;;-7.03;100.00;101373.56;5071678;28;20032;-71
2024/01/20 09:12:22;;;;;;;9.30;4.00;;;;;;;-7.14;100.00;101350.53;5054419;28;20466;-72
2024/01/20 09:14:47;;;;;;;6.13;3.30;;;;;;;-6.95;100.00;101378.44;5054940;28;20025;-72
2024/01/20 09:17:13;;;;;;;10.52;3.60;;;;;;;-6.96;100.00;101380.19;5070812;28;20081;-69
2024/01/20 09:19:38;;;;;;;8.85;3.90;;;;;;;-6.96;100.00;101382.78;5071707;28;20030;-69
2024/01/20 09:22:04;;;;;;;11.60;3.90;;;;;;;-6.82;100.00;101384.78;5070622;28;20119;-70
2024/01/20 09:24:29;;;;;;;9.43;4.40;;;;;;;-6.79;100.00;101391.63;5071452;28;20514;-69
2024/01/20 09:26:54;;;;;;;10.57;4.30;;;;;;;-6.75;100.00;101388.78;5070572;28;20499;-70
2024/01/20 09:29:20;;;;;;;13.52;4.32;;;;;;;-6.82;100.00;101392.63;5071469;28;20514;-69
2024/01/20 09:31:45;;;;;;;8.15;4.45;;;;;;;-6.75;100.00;101399.25;5071695;28;20119;-70
2024/01/20 09:34:11;;;;;;;11.40;4.75;;;;;;;-6.80;100.00;101403.00;5072508;28;20049;-70
2024/01/20 09:36:36;;;;;;;11.00;4.90;;;;;;;-6.73;100.00;101409.66;5070407;28;20161;-70
2024/01/20 09:39:02;;;;;;;9.82;4.18;;;;;;;-6.80;100.00;101411.69;5071005;28;20024;-70
2024/01/20 09:41:29;;;;;;;8.80;3.78;;;;;;;-6.76;100.00;101407.16;5054181;28;20028;-70
2024/01/20 09:43:55;;;;;;;9.77;4.70;;;;;;;-6.80;100.00;101401.25;5071029;28;20040;-70
2024/01/20 09:46:21;;;;;;;9.38;4.07;;;;;;;-6.75;100.00;101394.03;5070400;28;20043;-70
2024/01/20 09:48:50;;;;;;;10.32;3.75;;;;;;;-6.61;100.00;101406.44;5071330;28;20239;-70
2024/01/20 09:51:24;;;;;;;9.38;4.32;;;;;;;-6.56;100.00;101420.13;5071322;28;20033;-70
2024/01/20 09:53:54;;;;;;;10.07;4.40;;;;;;;-6.64;100.00;101428.38;5070895;28;20027;-70
2024/01/20 09:56:21;;;;;;;8.13;4.10;;;;;;;-6.62;100.00;101433.56;5071454;28;20265;-70
2024/01/20 09:58:48;;;;;;;14.25;4.30;;;;;;;-6.52;100.00;101442.66;5071302;28;20093;-70
2024/01/20 10:01:15;;;;;;;12.18;4.38;;;;;;;-6.76;100.00;101405.41;5070346;28;20029;-70
2024/01/20 10:03:42;;;;;;;11.38;4.65;;;;;;;-6.67;100.00;101436.38;5071538;28;20041;-69
2024/01/20 10:06:07;;;;;;;11.95;4.07;;;;;;;-6.75;100.00;101443.75;5071818;28;20060;-69
2024/01/20 10:08:33;;;;;;;9.43;4.10;;;;;;;-6.74;100.00;101445.44;5070403;28;20088;-69
2024/01/20 10:11:05;;;;;;;9.63;4.07;;;;;;;-6.86;100.00;101427.69;5053746;28;20074;-70
2024/01/20 10:13:30;;;;;;;10.70;4.30;;;;;;;-6.56;100.00;101467.25;5071391;28;20035;-70
2024/01/20 10:15:56;;;;;;;11.50;4.10;;;;;;;-6.50;100.00;101464.34;5054218;28;20107;-69
2024/01/20 10:18:23;;;;;;;7.57;3.80;;;;;;;-6.40;100.00;101470.84;5070618;28;20032;-70
2024/01/20 10:20:48;;;;;;;7.93;4.00;;;;;;;-6.28;100.00;101471.19;5088364;28;20035;-70
2024/01/20 10:23:13;;;;;;;10.57;3.80;;;;;;;-6.08;100.00;101491.16;5071202;28;20032;-69
2024/01/20 10:25:40;;;;;;;9.45;3.83;;;;;;;-5.94;100.00;101481.69;5054417;28;20028;-69
2024/01/20 10:28:09;;;;;;;8.52;3.63;;;;;;;-6.04;100.00;101456.03;5070727;28;20029;-70
2024/01/20 10:30:37;;;;;;;10.23;3.92;;;;;;;-5.91;100.00;101492.00;5071191;28;20063;-70
2024/01/20 10:33:03;;;;;;;10.52;3.72;;;;;;;-5.85;100.00;101500.47;5071239;28;20036;-70
2024/01/20 10:35:29;;;;;;;10.30;3.83;;;;;;;-5.62;100.00;101512.44;5070282;28;20068;-69
2024/01/20 10:38:00;;;;;;;9.10;3.65;;;;;;;-5.52;100.00;101506.63;5071918;28;20033;-70
2024/01/20 10:40:27;;;;;;;9.10;3.70;;;;;;;-5.43;100.00;101518.41;5071369;28;20017;-70
2024/01/20 10:42:59;;;;;;;9.18;3.72;;;;;;;-5.44;100.00;101529.84;5070078;28;20043;-71
2024/01/20 10:45:25;;;;;;;8.80;3.70;;;;;;;-5.61;100.00;101496.63;5070881;28;20083;-69
2024/01/20 10:48:07;;;;;;;8.90;3.78;;;;;;;-5.35;100.00;101532.00;5068808;28;20036;-69
2024/01/20 10:50:35;;;;;;;5.63;3.35;;;;;;;-5.42;100.00;101530.63;5070170;28;20551;-70
2024/01/20 10:53:02;;;;;;;7.55;3.42;;;;;;;-5.43;100.00;101531.53;5068769;28;20484;-69
2024/01/20 10:55:29;;;;;;;6.65;3.58;;;;;;;-5.51;100.00;101525.84;5057776;28;20027;-68
2024/01/20 10:57:57;;;;;;;7.90;3.03;;;;;;;-5.67;100.00;101512.66;5076077;28;20478;-69
2024/01/20 11:00:23;;;;;;;7.82;3.67;;;;;;;-5.45;100.00;101526.38;5075610;28;20029;-70
2024/01/20 11:02:49;;;;;;;8.50;3.60;;;;;;;-5.35;100.00;101532.00;5074325;28;20040;-70
2024/01/20 11:05:20;;;;;;;6.63;3.67;;;;;;;-5.18;100.00;101536.38;5073552;28;20028;-69
2024/01/20 11:07:55;;;;;;;11.50;5.07;;;;;;;-5.21;100.00;101539.16;5073385;28;20612;-69
2024/01/20 11:10:23;;;;;;;14.07;5.85;;;;;;;-5.19;100.00;101537.31;5072225;28;20042;-70
2024/01/20 11:13:04;;;;;;;25.52;9.18;;;;;;;-5.35;100.00;101525.91;5073757;28;20020;-69